createdAt,value
2023-02-20T00:01:36.074Z,4.00
2023-02-20T00:04:04.519Z,3.00
2023-02-20T00:06:32.484Z,3.00
2023-02-20T00:09:00.501Z,4.00
2023-02-20T00:11:28.395Z,4.50
2023-02-20T00:13:56.260Z,3.00
2023-02-20T00:16:25.569Z,3.50
2023-02-20T00:18:53.430Z,3.50
2023-02-20T00:21:21.391Z,4.00
2023-02-20T00:23:49.605Z,4.00
2023-02-20T00:26:17.508Z,3.00
2023-02-20T00:28:45.672Z,3.00
2023-02-20T00:31:15.330Z,5.00
2023-02-20T00:33:45.067Z,4.75
2023-02-20T00:36:16.735Z,4.00
2023-02-20T00:38:44.935Z,5.00
2023-02-20T00:41:14.203Z,6.00
2023-02-20T00:43:42.440Z,5.00
2023-02-20T00:46:12.991Z,7.00
2023-02-20T00:48:41.105Z,5.00
2023-02-20T00:51:10.473Z,6.00
2023-02-20T00:53:38.391Z,5.25
2023-02-20T00:56:06.881Z,6.25
2023-02-20T00:58:34.808Z,6.25
2023-02-20T01:01:02.704Z,5.75
2023-02-20T01:03:30.951Z,6.00
2023-02-20T01:05:58.859Z,5.25
2023-02-20T01:08:28.109Z,7.00
2023-02-20T01:10:56.010Z,5.00
2023-02-20T01:13:25.454Z,6.50
2023-02-20T01:15:53.485Z,6.00
2023-02-20T01:18:21.374Z,6.00
2023-02-20T01:20:49.408Z,6.25
2023-02-20T01:23:17.601Z,6.00
2023-02-20T01:25:46.830Z,8.50
2023-02-20T01:28:14.730Z,7.25
2023-02-20T01:30:42.629Z,6.00
2023-02-20T01:33:10.507Z,7.75
2023-02-20T01:35:38.692Z,7.00
2023-02-20T01:38:06.843Z,6.50
2023-02-20T01:40:34.865Z,6.00
2023-02-20T01:43:04.416Z,6.25
2023-02-20T01:45:35.478Z,5.75
2023-02-20T01:48:03.335Z,7.00
2023-02-20T01:50:32.665Z,6.25
2023-02-20T01:53:02.588Z,6.75
2023-02-20T01:55:31.728Z,6.50
2023-02-20T01:58:01.248Z,6.50
2023-02-20T02:00:30.555Z,6.00
2023-02-20T02:02:59.627Z,8.25
2023-02-20T02:05:27.573Z,8.00
2023-02-20T02:07:55.565Z,6.75
2023-02-20T02:10:26.394Z,7.25
2023-02-20T02:12:54.810Z,6.00
2023-02-20T02:15:23.851Z,5.00
2023-02-20T02:18:18.030Z,7.00
2023-02-20T02:20:57.697Z,7.00
2023-02-20T02:23:48.111Z,6.75
2023-02-20T02:26:26.693Z,6.75
2023-02-20T02:29:21.224Z,8.25
2023-02-20T02:32:27.613Z,5.75
2023-02-20T02:35:28.171Z,6.25
2023-02-20T02:38:02.097Z,7.00
2023-02-20T02:40:33.779Z,8.50
2023-02-20T02:43:04.663Z,8.00
2023-02-20T02:45:35.654Z,8.25
2023-02-20T02:48:07.427Z,8.50
2023-02-20T02:50:36.787Z,6.00
2023-02-20T02:53:06.204Z,7.00
2023-02-20T02:55:34.822Z,6.00
2023-02-20T02:58:02.833Z,8.25
2023-02-20T03:00:32.568Z,8.25
2023-02-20T03:03:02.740Z,7.00
2023-02-20T03:05:40.311Z,7.00
2023-02-20T03:08:14.308Z,8.00
2023-02-20T03:10:42.258Z,7.00
2023-02-20T03:13:12.622Z,8.00
2023-02-20T03:15:39.981Z,9.00
2023-02-20T03:18:15.155Z,6.75
2023-02-20T03:20:44.114Z,9.50
2023-02-20T03:23:14.928Z,9.50
2023-02-20T03:25:45.940Z,7.75
2023-02-20T03:28:16.702Z,7.75
2023-02-20T03:30:46.936Z,8.50
2023-02-20T03:33:35.538Z,9.00
2023-02-20T03:36:22.311Z,7.25
2023-02-20T03:39:11.794Z,7.25
2023-02-20T03:41:57.378Z,8.00
2023-02-20T03:44:25.529Z,6.00
2023-02-20T03:46:53.490Z,8.50
2023-02-20T03:49:22.498Z,9.00
2023-02-20T03:51:59.485Z,11.00
2023-02-20T03:54:29.006Z,8.00
2023-02-20T03:56:58.151Z,8.00
2023-02-20T03:59:28.209Z,7.00
2023-02-20T04:01:58.039Z,8.50
2023-02-20T04:04:27.736Z,8.75
2023-02-20T04:06:55.629Z,7.00
2023-02-20T04:09:25.465Z,7.75
2023-02-20T04:11:55.717Z,7.50
2023-02-20T04:14:24.052Z,8.75
2023-02-20T04:16:53.586Z,9.75
2023-02-20T04:19:21.491Z,9.00
2023-02-20T04:21:51.148Z,8.75
2023-02-20T04:24:20.667Z,9.00
2023-02-20T04:26:48.573Z,8.00
2023-02-20T04:29:17.879Z,9.00
2023-02-20T04:31:45.809Z,9.00
2023-02-20T04:34:13.984Z,7.25
2023-02-20T04:36:42.080Z,7.50
2023-02-20T04:39:09.989Z,9.00
2023-02-20T04:41:37.858Z,8.00
2023-02-20T04:44:23.902Z,8.50
2023-02-20T04:46:53.175Z,9.00
2023-02-20T04:49:21.076Z,11.25
2023-02-20T04:51:48.997Z,9.50
2023-02-20T04:54:17.173Z,8.00
2023-02-20T04:56:45.101Z,8.00
2023-02-20T04:59:13.627Z,8.25
2023-02-20T05:01:41.797Z,10.75
2023-02-20T05:04:11.419Z,9.00
2023-02-20T05:06:42.489Z,9.75
2023-02-20T05:09:10.973Z,10.25
2023-02-20T05:11:39.292Z,9.00
2023-02-20T05:14:07.242Z,10.00
2023-02-20T05:16:35.150Z,10.75
2023-02-20T05:19:03.061Z,9.75
2023-02-20T05:21:50.251Z,10.00
2023-02-20T05:24:18.204Z,10.00
2023-02-20T05:26:46.114Z,10.75
2023-02-20T05:29:14.040Z,12.00
2023-02-20T05:31:42.141Z,10.00
2023-02-20T05:34:10.144Z,9.00
2023-02-20T05:36:39.442Z,10.50
2023-02-20T05:39:07.297Z,10.00
2023-02-20T05:41:35.178Z,10.50
2023-02-20T05:44:03.354Z,10.00
2023-02-20T05:46:31.288Z,10.00
2023-02-20T05:48:59.174Z,12.25
2023-02-20T05:51:28.178Z,10.00
2023-02-20T05:53:57.951Z,11.00
2023-02-20T05:56:25.910Z,9.00
2023-02-20T05:58:53.796Z,8.00
2023-02-20T06:01:23.192Z,12.00
2023-02-20T06:03:51.523Z,9.50
2023-02-20T06:06:19.540Z,9.50
2023-02-20T06:08:48.266Z,12.25
2023-02-20T06:11:17.597Z,11.00
2023-02-20T06:13:46.057Z,9.00
2023-02-20T06:16:14.421Z,10.75
2023-02-20T06:18:43.018Z,8.50
2023-02-20T06:21:11.783Z,9.75
2023-02-20T06:23:39.980Z,10.50
2023-02-20T06:26:08.033Z,9.00
2023-02-20T06:28:38.269Z,9.25
2023-02-20T06:31:06.855Z,8.00
2023-02-20T06:33:35.092Z,9.50
2023-02-20T06:36:02.979Z,11.50
2023-02-20T06:38:30.888Z,9.50
2023-02-20T06:40:58.771Z,9.75
2023-02-20T06:43:26.986Z,10.75
2023-02-20T06:45:56.278Z,8.50
2023-02-20T06:48:24.153Z,10.00
2023-02-20T06:50:55.328Z,8.00
2023-02-20T06:53:23.615Z,9.50
2023-02-20T06:55:51.512Z,8.50
2023-02-20T06:58:19.458Z,9.00
2023-02-20T07:00:47.402Z,10.00
2023-02-20T07:03:16.967Z,8.25
2023-02-20T07:05:44.900Z,9.00
2023-02-20T07:08:12.778Z,8.00
2023-02-20T07:10:40.695Z,8.00
2023-02-20T07:13:08.600Z,7.75
2023-02-20T07:15:36.947Z,9.00
2023-02-20T07:18:05.058Z,8.00
2023-02-20T07:20:34.316Z,8.00
2023-02-20T07:23:04.134Z,9.25
2023-02-20T07:25:32.316Z,9.00
2023-02-20T07:28:00.305Z,8.00
2023-02-20T07:30:28.292Z,6.75
2023-02-20T07:32:56.249Z,8.00
2023-02-20T07:35:24.426Z,7.75
2023-02-20T07:37:53.732Z,8.50
2023-02-20T07:40:22.240Z,8.75
2023-02-20T07:42:50.179Z,7.00
2023-02-20T07:45:18.373Z,7.75
2023-02-20T07:47:46.276Z,7.00
2023-02-20T07:50:15.294Z,8.00
2023-02-20T07:52:43.195Z,9.00
2023-02-20T07:55:14.595Z,9.25
2023-02-20T07:57:42.559Z,9.00
2023-02-20T08:00:14.667Z,8.00
2023-02-20T08:02:42.551Z,8.00
2023-02-20T08:05:10.890Z,6.50
2023-02-20T08:07:38.883Z,8.75
2023-02-20T08:10:07.399Z,8.00
2023-02-20T08:12:36.662Z,8.00
2023-02-20T08:15:05.751Z,8.00
2023-02-20T08:17:45.621Z,8.00
2023-02-20T08:20:15.067Z,8.25
2023-02-20T08:22:42.995Z,9.00
2023-02-20T08:25:11.219Z,8.00
2023-02-20T08:27:43.329Z,8.00
2023-02-20T08:30:12.766Z,10.25
2023-02-20T08:32:40.775Z,10.00
2023-02-20T08:35:09.174Z,9.00
2023-02-20T08:37:37.063Z,7.75
2023-02-20T08:40:08.223Z,8.25
2023-02-20T08:42:36.202Z,8.25
2023-02-20T08:45:08.694Z,9.50
2023-02-20T08:47:36.667Z,9.75
2023-02-20T08:50:04.620Z,12.00
2023-02-20T08:52:32.563Z,15.00
2023-02-20T08:55:00.763Z,11.00
2023-02-20T08:57:28.664Z,10.00
2023-02-20T08:59:56.704Z,12.00
2023-02-20T09:02:28.863Z,10.50
2023-02-20T09:04:57.511Z,11.75
2023-02-20T09:07:25.455Z,11.25
2023-02-20T09:09:53.397Z,10.25
2023-02-20T09:12:21.469Z,11.00
2023-02-20T09:14:49.718Z,10.25
2023-02-20T09:17:17.878Z,11.50
2023-02-20T09:19:47.197Z,11.25
2023-02-20T09:22:16.431Z,12.00
2023-02-20T09:24:44.629Z,13.00
2023-02-20T09:27:12.541Z,10.00
2023-02-20T09:29:42.975Z,11.00
2023-02-20T09:32:11.416Z,12.25
2023-02-20T09:34:39.643Z,11.00
2023-02-20T09:37:09.604Z,10.25
2023-02-20T09:39:37.559Z,11.75
2023-02-20T09:42:09.471Z,13.75
2023-02-20T09:44:41.125Z,11.50
2023-02-20T09:47:21.875Z,10.00
2023-02-20T09:49:49.803Z,11.00
2023-02-20T09:52:19.340Z,12.00
2023-02-20T09:54:48.776Z,11.50
2023-02-20T09:57:19.450Z,12.00
2023-02-20T09:59:48.846Z,12.00
2023-02-20T10:02:18.290Z,10.75
2023-02-20T10:05:00.439Z,12.75
2023-02-20T10:07:31.772Z,10.25
2023-02-20T10:10:00.199Z,11.25
2023-02-20T10:12:31.168Z,12.25
2023-02-20T10:15:09.918Z,10.50
2023-02-20T10:17:42.132Z,10.00
2023-02-20T10:20:12.737Z,12.25
2023-02-20T10:22:46.968Z,14.25
2023-02-20T10:25:17.121Z,11.00
2023-02-20T10:27:56.036Z,13.75
2023-02-20T10:30:30.481Z,11.75
2023-02-20T10:33:00.396Z,12.25
2023-02-20T10:35:33.680Z,13.00
2023-02-20T10:38:05.599Z,12.25
2023-02-20T10:40:34.690Z,14.00
2023-02-20T10:43:03.761Z,14.25
2023-02-20T10:45:36.836Z,16.50
2023-02-20T10:48:06.308Z,13.00
2023-02-20T10:50:36.548Z,13.25
2023-02-20T10:53:09.294Z,12.00
2023-02-20T10:55:40.563Z,13.25
2023-02-20T10:58:10.148Z,13.00
2023-02-20T11:00:39.663Z,14.75
2023-02-20T11:03:09.188Z,11.00
2023-02-20T11:05:40.520Z,11.75
2023-02-20T11:08:09.791Z,14.50
2023-02-20T11:10:38.807Z,13.75
2023-02-20T11:13:07.978Z,12.00
2023-02-20T11:15:37.047Z,12.00
2023-02-20T11:18:06.882Z,13.75
2023-02-20T11:20:45.992Z,13.25
2023-02-20T11:23:35.383Z,11.00
2023-02-20T11:26:32.392Z,12.50
2023-02-20T11:29:04.191Z,12.00
2023-02-20T11:31:32.279Z,11.00
2023-02-20T11:34:00.252Z,12.25
2023-02-20T11:36:28.826Z,13.50
2023-02-20T11:39:01.556Z,13.00
2023-02-20T11:41:33.524Z,10.00
2023-02-20T11:44:22.296Z,14.00
2023-02-20T11:47:04.851Z,11.75
2023-02-20T11:49:32.822Z,10.75
2023-02-20T11:52:08.757Z,13.00
2023-02-20T11:54:38.080Z,13.50
2023-02-20T11:57:07.212Z,11.50
2023-02-20T11:59:38.818Z,12.75
2023-02-20T12:02:26.653Z,10.25
2023-02-20T12:05:11.985Z,11.50
2023-02-20T12:07:41.959Z,11.50
2023-02-20T12:10:32.475Z,12.00
2023-02-20T12:13:00.386Z,10.50
2023-02-20T12:15:29.452Z,11.00
2023-02-20T12:18:25.191Z,14.50
2023-02-20T12:20:55.540Z,11.00
2023-02-20T12:23:28.425Z,12.75
2023-02-20T12:26:04.591Z,9.25
2023-02-20T12:28:36.659Z,10.75
2023-02-20T12:31:12.176Z,11.25
2023-02-20T12:33:48.624Z,10.00
2023-02-20T12:36:23.422Z,11.75
2023-02-20T12:38:54.249Z,9.75
2023-02-20T12:41:37.767Z,9.50
2023-02-20T12:44:21.472Z,12.00
2023-02-20T12:46:55.541Z,11.50
2023-02-20T12:49:35.710Z,10.00
2023-02-20T12:52:05.917Z,11.00
2023-02-20T12:54:37.262Z,11.25
2023-02-20T12:57:11.318Z,12.00
2023-02-20T12:59:42.874Z,12.00
2023-02-20T13:02:21.072Z,12.75
2023-02-20T13:04:53.209Z,14.00
2023-02-20T13:07:22.587Z,9.00
2023-02-20T13:09:58.389Z,12.00
2023-02-20T13:12:27.685Z,9.50
2023-02-20T13:15:01.048Z,11.25
2023-02-20T13:17:34.129Z,11.00
2023-02-20T13:20:04.790Z,12.25
2023-02-20T13:22:32.696Z,10.25
2023-02-20T13:25:34.305Z,11.00
2023-02-20T13:28:04.223Z,13.25
2023-02-20T13:30:34.219Z,11.00
2023-02-20T13:33:15.015Z,10.50
2023-02-20T13:35:50.536Z,10.50
2023-02-20T13:38:19.444Z,9.75
2023-02-20T13:40:47.499Z,13.00
2023-02-20T13:43:28.427Z,10.75
2023-02-20T13:46:20.279Z,11.00
2023-02-20T13:48:48.755Z,10.00
2023-02-20T13:51:38.871Z,9.50
2023-02-20T13:54:28.807Z,11.25
2023-02-20T13:56:59.724Z,10.50
2023-02-20T13:59:29.138Z,12.00
2023-02-20T14:01:58.356Z,11.25
2023-02-20T14:04:26.660Z,10.75
2023-02-20T14:06:59.285Z,10.25
2023-02-20T14:09:31.326Z,14.00
2023-02-20T14:12:07.972Z,10.75
2023-02-20T14:14:39.643Z,11.75
2023-02-20T14:17:09.157Z,10.25
2023-02-20T14:19:41.310Z,11.00
2023-02-20T14:22:27.604Z,9.75
2023-02-20T14:25:23.493Z,12.00
2023-02-20T14:27:51.548Z,13.25
2023-02-20T14:30:22.109Z,10.50
2023-02-20T14:32:51.163Z,12.25
2023-02-20T14:35:33.324Z,11.00
2023-02-20T14:38:07.563Z,10.25
2023-02-20T14:40:38.188Z,11.00
2023-02-20T14:43:10.298Z,13.00
2023-02-20T14:45:40.449Z,10.25
2023-02-20T14:48:23.121Z,11.00
2023-02-20T14:50:51.007Z,12.50
2023-02-20T14:53:20.857Z,10.25
2023-02-20T14:55:51.064Z,14.75
2023-02-20T14:58:20.156Z,12.25
2023-02-20T15:00:50.194Z,13.25
2023-02-20T15:03:29.748Z,9.50
2023-02-20T15:06:01.824Z,11.00
2023-02-20T15:08:31.071Z,9.25
2023-02-20T15:10:58.939Z,11.00
2023-02-20T15:13:29.805Z,10.00
2023-02-20T15:16:07.596Z,10.75
2023-02-20T15:18:37.033Z,11.00
2023-02-20T15:21:05.173Z,10.75
2023-02-20T15:23:34.106Z,9.75
2023-02-20T15:26:29.792Z,11.75
2023-02-20T15:29:14.160Z,12.25
2023-02-20T15:31:45.046Z,10.00
2023-02-20T15:34:14.324Z,11.00
2023-02-20T15:36:42.238Z,9.25
2023-02-20T15:39:10.797Z,11.25
2023-02-20T15:41:38.699Z,10.00
2023-02-20T15:44:06.860Z,11.25
2023-02-20T15:46:34.872Z,10.00
2023-02-20T15:49:05.087Z,11.25
2023-02-20T15:51:35.514Z,10.50
2023-02-20T15:54:04.766Z,9.50
2023-02-20T15:56:34.634Z,8.50
2023-02-20T15:59:04.639Z,9.75
2023-02-20T16:01:32.587Z,10.25
2023-02-20T16:04:00.748Z,11.50
2023-02-20T16:06:30.110Z,9.75
2023-02-20T16:08:58.843Z,10.00
2023-02-20T16:11:27.607Z,9.00
2023-02-20T16:13:57.607Z,10.75
2023-02-20T16:16:31.653Z,10.00
2023-02-20T16:18:59.776Z,11.00
2023-02-20T16:21:29.133Z,12.25
2023-02-20T16:23:57.362Z,10.00
2023-02-20T16:26:28.234Z,10.50
2023-02-20T16:28:57.821Z,11.00
2023-02-20T16:31:48.859Z,10.00
2023-02-20T16:34:22.182Z,10.00
2023-02-20T16:36:51.684Z,10.50
2023-02-20T16:39:26.242Z,10.00
2023-02-20T16:41:54.726Z,8.75
2023-02-20T16:44:25.457Z,10.00
2023-02-20T16:46:53.346Z,9.50
2023-02-20T16:49:21.288Z,9.50
2023-02-20T16:51:51.593Z,11.00
2023-02-20T16:54:21.175Z,10.75
2023-02-20T16:56:49.034Z,9.00
2023-02-20T16:59:16.893Z,10.25
2023-02-20T17:01:44.896Z,11.25
2023-02-20T17:04:14.518Z,9.00
2023-02-20T17:06:42.433Z,10.25
2023-02-20T17:09:10.360Z,11.00
2023-02-20T17:11:39.730Z,9.00
2023-02-20T17:14:07.632Z,12.00
2023-02-20T17:16:35.619Z,9.00
2023-02-20T17:19:03.738Z,9.75
2023-02-20T17:21:31.799Z,11.00
2023-02-20T17:23:59.704Z,9.00
2023-02-20T17:26:28.468Z,9.75
2023-02-20T17:28:57.870Z,12.00
2023-02-20T17:31:25.806Z,10.00
2023-02-20T17:33:53.999Z,11.00
2023-02-20T17:36:21.920Z,9.00
2023-02-20T17:38:50.850Z,10.00
2023-02-20T17:41:19.105Z,9.00
2023-02-20T17:43:47.054Z,9.25
2023-02-20T17:46:17.696Z,7.00
2023-02-20T17:48:45.613Z,9.00
2023-02-20T17:51:17.268Z,10.50
2023-02-20T17:53:45.661Z,9.50
2023-02-20T17:56:15.465Z,9.00
2023-02-20T17:58:43.528Z,10.75
2023-02-20T18:01:11.574Z,9.00
2023-02-20T18:03:40.923Z,10.00
2023-02-20T18:06:09.180Z,9.00
2023-02-20T18:08:37.115Z,8.50
2023-02-20T18:11:05.120Z,9.25
2023-02-20T18:13:33.023Z,10.00
2023-02-20T18:16:01.926Z,10.50
2023-02-20T18:18:29.878Z,10.00
2023-02-20T18:20:59.373Z,11.00
2023-02-20T18:23:27.271Z,9.00
2023-02-20T18:25:55.791Z,10.50
2023-02-20T18:28:23.687Z,10.75
2023-02-20T18:30:51.575Z,11.25
2023-02-20T18:33:19.746Z,10.75
2023-02-20T18:35:58.421Z,11.75
2023-02-20T18:38:35.477Z,9.25
2023-02-20T18:41:03.457Z,10.50
2023-02-20T18:43:31.460Z,10.50
2023-02-20T18:45:59.359Z,10.25
2023-02-20T18:48:27.284Z,11.00
2023-02-20T18:50:55.166Z,11.50
2023-02-20T18:53:23.094Z,10.75
2023-02-20T18:55:52.556Z,13.00
2023-02-20T18:58:20.558Z,11.50
2023-02-20T19:00:48.552Z,11.00
2023-02-20T19:03:16.556Z,12.25
2023-02-20T19:05:44.514Z,11.00
2023-02-20T19:08:12.390Z,12.00
2023-02-20T19:10:40.317Z,16.50
2023-02-20T19:13:09.631Z,15.00
2023-02-20T19:15:37.538Z,14.50
2023-02-20T19:18:05.802Z,15.00
2023-02-20T19:20:33.715Z,14.00
2023-02-20T19:23:02.347Z,13.25
2023-02-20T19:25:30.331Z,13.00
2023-02-20T19:27:58.260Z,14.50
2023-02-20T19:30:27.664Z,13.50
2023-02-20T19:32:55.600Z,15.25
2023-02-20T19:35:23.508Z,13.25
2023-02-20T19:37:51.561Z,16.00
2023-02-20T19:40:19.831Z,17.00
2023-02-20T19:42:47.915Z,15.25
2023-02-20T19:45:16.128Z,14.75
2023-02-20T19:47:45.577Z,15.00
2023-02-20T19:50:13.692Z,15.25
2023-02-20T19:52:42.266Z,16.25
2023-02-20T19:55:11.441Z,15.00
2023-02-20T19:57:39.375Z,14.50
2023-02-20T20:00:10.769Z,16.75
2023-02-20T20:02:38.747Z,16.75
2023-02-20T20:05:09.014Z,15.50
2023-02-20T20:07:36.990Z,15.50
2023-02-20T20:10:05.192Z,15.75
2023-02-20T20:12:48.298Z,19.25
2023-02-20T20:15:18.458Z,18.50
2023-02-20T20:17:46.679Z,17.25
2023-02-20T20:20:16.144Z,16.75
2023-02-20T20:22:45.285Z,15.75
2023-02-20T20:25:13.771Z,15.75
2023-02-20T20:27:41.780Z,16.00
2023-02-20T20:30:12.595Z,18.00
2023-02-20T20:32:40.589Z,15.50
2023-02-20T20:35:08.799Z,15.00
2023-02-20T20:37:38.145Z,16.25
2023-02-20T20:40:08.342Z,17.50
2023-02-20T20:42:36.272Z,17.75
2023-02-20T20:45:04.709Z,16.75
2023-02-20T20:47:32.596Z,16.25
2023-02-20T20:50:00.579Z,15.25
2023-02-20T20:52:28.588Z,16.50
2023-02-20T20:54:59.062Z,16.25
2023-02-20T20:57:28.140Z,18.00
2023-02-20T20:59:57.317Z,17.00
2023-02-20T21:02:25.184Z,14.75
2023-02-20T21:05:07.787Z,16.25
2023-02-20T21:07:37.586Z,15.00
2023-02-20T21:10:07.982Z,17.00
2023-02-20T21:12:35.926Z,20.00
2023-02-20T21:15:04.053Z,18.75
2023-02-20T21:17:31.975Z,19.25
2023-02-20T21:20:00.071Z,18.25
2023-02-20T21:22:28.027Z,18.50
2023-02-20T21:24:56.211Z,17.25
2023-02-20T21:27:25.539Z,19.50
2023-02-20T21:29:53.487Z,19.00
2023-02-20T21:32:21.393Z,18.25
2023-02-20T21:34:49.269Z,17.00
2023-02-20T21:37:18.022Z,18.75
2023-02-20T21:39:46.010Z,16.00
2023-02-20T21:42:31.424Z,16.50
2023-02-20T21:45:00.713Z,18.25
2023-02-20T21:47:28.614Z,18.00
2023-02-20T21:49:56.526Z,16.00
2023-02-20T21:52:24.442Z,17.50
2023-02-20T21:54:53.557Z,15.50
2023-02-20T21:57:21.585Z,17.00
2023-02-20T21:59:48.305Z,17.50
2023-02-20T22:02:18.447Z,18.00
2023-02-20T22:04:45.458Z,14.75
2023-02-20T22:07:30.824Z,14.75
2023-02-20T22:10:16.282Z,17.50
2023-02-20T22:13:01.757Z,15.00
2023-02-20T22:15:47.121Z,14.50
2023-02-20T22:18:33.702Z,14.00
2023-02-20T22:21:19.079Z,15.25
2023-02-20T22:24:04.450Z,14.75
2023-02-20T22:26:49.932Z,16.00
2023-02-20T22:29:35.074Z,13.25
2023-02-20T22:32:21.014Z,14.00
2023-02-20T22:35:11.919Z,16.75
2023-02-20T22:37:58.957Z,13.50
2023-02-20T22:40:44.333Z,13.50
2023-02-20T22:43:29.628Z,16.00
2023-02-20T22:46:14.962Z,17.50
2023-02-20T22:49:00.280Z,15.00
2023-02-20T22:51:47.372Z,15.00
2023-02-20T22:54:32.961Z,18.75
2023-02-20T22:57:18.378Z,15.25
2023-02-20T23:00:03.659Z,17.00
2023-02-20T23:02:49.334Z,15.00
2023-02-20T23:05:34.639Z,15.00
2023-02-20T23:08:21.486Z,16.25
2023-02-20T23:11:06.901Z,14.00
2023-02-20T23:13:52.287Z,14.75
2023-02-20T23:16:38.276Z,19.00
2023-02-20T23:19:23.246Z,15.75
2023-02-20T23:22:08.957Z,16.00
2023-02-20T23:24:55.941Z,18.00
2023-02-20T23:27:41.138Z,15.75
2023-02-20T23:30:30.021Z,14.75
2023-02-20T23:33:15.448Z,14.00
2023-02-20T23:36:00.810Z,16.00
2023-02-20T23:38:46.198Z,17.75
2023-02-20T23:41:33.049Z,16.25
2023-02-20T23:44:18.340Z,16.00
2023-02-20T23:47:03.663Z,15.25
2023-02-20T23:49:49.074Z,12.00
2023-02-20T23:52:34.802Z,14.00
2023-02-20T23:55:19.936Z,12.75
2023-02-20T23:58:06.482Z,13.00
